createdAt,value
2018-06-02T00:00:30.427Z,96.83
2018-06-02T00:02:57.882Z,90.60
2018-06-02T00:05:25.360Z,92.70
2018-06-02T00:07:52.866Z,91.87
2018-06-02T00:10:20.474Z,104.90
2018-06-02T00:12:47.951Z,108.40
2018-06-02T00:15:15.425Z,84.90
2018-06-02T00:17:42.911Z,92.63
2018-06-02T00:20:10.383Z,112.07
2018-06-02T00:22:38.096Z,108.53
2018-06-02T00:25:05.562Z,98.13
2018-06-02T00:27:33.043Z,90.83
2018-06-02T00:30:00.519Z,118.93
2018-06-02T00:32:28.290Z,94.47
2018-06-02T00:34:57.265Z,88.17
2018-06-02T00:37:24.753Z,98.03
2018-06-02T00:39:53.718Z,101.73
2018-06-02T00:42:21.198Z,94.07
2018-06-02T00:44:49.435Z,83.17
2018-06-02T00:47:16.914Z,81.03
2018-06-02T00:49:44.495Z,92.80
2018-06-02T00:52:13.476Z,90.17
2018-06-02T00:54:54.207Z,63.13
2018-06-02T00:57:21.694Z,61.93
2018-06-02T00:59:49.170Z,71.27
2018-06-02T01:02:16.701Z,66.40
2018-06-02T01:04:44.206Z,57.57
2018-06-02T01:07:11.683Z,52.30
2018-06-02T01:09:39.220Z,68.47
2018-06-02T01:12:06.713Z,67.57
2018-06-02T01:14:34.432Z,52.67
2018-06-02T01:17:01.918Z,68.13
2018-06-02T01:19:29.394Z,49.17
2018-06-02T01:21:56.890Z,64.30
2018-06-02T01:24:24.362Z,56.20
2018-06-02T01:26:51.854Z,65.73
2018-06-02T01:29:19.318Z,66.87
2018-06-02T01:31:46.962Z,68.03
2018-06-02T01:34:14.445Z,74.20
2018-06-02T01:36:41.926Z,73.57
2018-06-02T01:39:09.464Z,77.47
2018-06-02T01:41:36.934Z,72.03
2018-06-02T01:44:04.415Z,64.73
2018-06-02T01:46:31.902Z,69.13
2018-06-02T01:48:59.379Z,55.90
2018-06-02T01:51:26.902Z,61.60
2018-06-02T01:53:55.250Z,50.77
2018-06-02T01:56:22.711Z,46.90
2018-06-02T01:58:50.194Z,68.67
2018-06-02T02:01:17.669Z,67.50
2018-06-02T02:03:46.650Z,65.70
2018-06-02T02:06:14.130Z,74.67
2018-06-02T02:08:41.901Z,81.07
2018-06-02T02:11:09.573Z,73.23
2018-06-02T02:13:37.042Z,97.90
2018-06-02T02:16:04.571Z,98.63
2018-06-02T02:18:33.540Z,90.40
2018-06-02T02:21:01.020Z,96.67
2018-06-02T02:23:28.496Z,96.33
2018-06-02T02:25:55.962Z,103.40
2018-06-02T02:28:23.434Z,94.63
2018-06-02T02:30:50.916Z,117.73
2018-06-02T02:33:18.406Z,98.60
2018-06-02T02:35:45.887Z,101.07
2018-06-02T02:38:14.152Z,95.77
2018-06-02T02:40:42.392Z,97.40
2018-06-02T02:43:09.870Z,102.00
2018-06-02T02:45:37.450Z,110.80
2018-06-02T02:48:04.919Z,106.90
2018-06-02T02:50:32.439Z,105.40
2018-06-02T02:52:59.941Z,100.13
2018-06-02T02:55:28.198Z,107.63
2018-06-02T02:57:56.500Z,119.63
2018-06-02T03:00:23.975Z,112.33
2018-06-02T03:02:51.460Z,128.10
2018-06-02T03:05:18.935Z,114.50
2018-06-02T03:07:46.539Z,120.53
2018-06-02T03:10:14.797Z,101.20
2018-06-02T03:12:43.080Z,109.13
2018-06-02T03:15:10.602Z,120.80
2018-06-02T03:17:38.102Z,97.73
2018-06-02T03:20:05.583Z,115.70
2018-06-02T03:22:33.127Z,114.37
2018-06-02T03:25:01.358Z,105.83
2018-06-02T03:27:28.935Z,111.33
2018-06-02T03:29:56.451Z,105.23
2018-06-02T03:32:24.062Z,120.67
2018-06-02T03:34:51.623Z,100.67
2018-06-02T03:37:19.179Z,112.73
2018-06-02T03:39:46.696Z,107.50
2018-06-02T03:42:14.258Z,99.40
2018-06-02T03:44:41.855Z,117.40
2018-06-02T03:47:09.375Z,122.03
2018-06-02T03:49:36.926Z,118.13
2018-06-02T03:52:04.550Z,120.20
2018-06-02T03:54:32.106Z,105.97
2018-06-02T03:56:59.838Z,124.43
2018-06-02T03:59:27.363Z,114.87
2018-06-02T04:01:54.872Z,103.73
2018-06-02T04:04:22.391Z,119.03
2018-06-02T04:06:50.694Z,103.90
2018-06-02T04:09:18.301Z,127.03
2018-06-02T04:11:45.860Z,110.83
2018-06-02T04:14:13.350Z,122.77
2018-06-02T04:16:40.864Z,97.37
2018-06-02T04:19:08.369Z,121.13
2018-06-02T04:21:35.907Z,104.07
2018-06-02T04:24:03.602Z,99.10
2018-06-02T04:26:31.120Z,97.93
2018-06-02T04:28:58.652Z,99.10
2018-06-02T04:31:26.404Z,114.33
2018-06-02T04:33:54.040Z,114.93
2018-06-02T04:36:21.621Z,108.60
2018-06-02T04:38:49.159Z,97.13
2018-06-02T04:41:16.784Z,105.20
2018-06-02T04:43:44.316Z,102.60
2018-06-02T04:46:18.894Z,106.03
2018-06-02T04:48:46.449Z,106.17
2018-06-02T04:51:14.795Z,114.80
2018-06-02T04:53:42.422Z,102.77
2018-06-02T04:56:09.980Z,122.50
2018-06-02T04:58:37.517Z,118.53
2018-06-02T05:01:05.841Z,122.57
2018-06-02T05:03:33.375Z,115.67
2018-06-02T05:06:00.876Z,105.93
2018-06-02T05:08:28.489Z,115.27
2018-06-02T05:10:55.988Z,106.10
2018-06-02T05:13:23.524Z,120.07
2018-06-02T05:15:51.146Z,130.93
2018-06-02T05:18:18.676Z,98.83
2018-06-02T05:20:46.236Z,113.67
2018-06-02T05:23:13.852Z,103.27
2018-06-02T05:25:41.407Z,113.47
2018-06-02T05:28:08.930Z,107.00
2018-06-02T05:30:36.472Z,108.20
2018-06-02T05:33:03.983Z,105.63
2018-06-02T05:35:31.609Z,99.43
2018-06-02T05:37:59.110Z,103.10
2018-06-02T05:40:26.631Z,91.83
2018-06-02T05:42:55.645Z,97.73
2018-06-02T05:45:23.171Z,96.97
2018-06-02T05:47:51.125Z,108.43
2018-06-02T05:50:18.698Z,99.07
2018-06-02T05:52:46.243Z,98.53
2018-06-02T05:55:13.738Z,101.77
2018-06-02T05:57:41.259Z,95.00
2018-06-02T06:00:08.782Z,104.93
2018-06-02T06:02:36.276Z,97.73
2018-06-02T06:05:03.787Z,107.47
2018-06-02T06:07:32.050Z,100.63
2018-06-02T06:10:00.317Z,98.13
2018-06-02T06:12:27.824Z,102.43
2018-06-02T06:14:55.314Z,97.13
2018-06-02T06:17:22.811Z,104.53
2018-06-02T06:19:50.332Z,103.73
2018-06-02T06:22:17.819Z,101.40
2018-06-02T06:24:45.299Z,91.07
2018-06-02T06:27:13.567Z,97.57
2018-06-02T06:29:41.067Z,96.60
2018-06-02T06:32:08.553Z,100.10
2018-06-02T06:34:36.016Z,100.80
2018-06-02T06:37:03.526Z,96.57
2018-06-02T06:39:31.155Z,106.43
2018-06-02T06:42:00.502Z,104.50
2018-06-02T06:44:27.997Z,118.60
2018-06-02T06:46:55.470Z,103.10
2018-06-02T06:49:23.054Z,117.03
2018-06-02T06:51:50.534Z,116.77
2018-06-02T06:54:18.058Z,104.00
2018-06-02T06:56:47.044Z,108.43
2018-06-02T06:59:15.394Z,102.07
2018-06-02T07:01:42.880Z,109.10
2018-06-02T07:04:11.161Z,111.37
2018-06-02T07:06:38.630Z,100.73
2018-06-02T07:09:06.111Z,110.57
2018-06-02T07:11:33.574Z,107.60
2018-06-02T07:14:01.063Z,103.43
2018-06-02T07:16:28.538Z,117.30
2018-06-02T07:18:56.314Z,125.57
2018-06-02T07:21:23.799Z,112.37
2018-06-02T07:23:51.263Z,110.67
2018-06-02T07:26:18.741Z,121.07
2018-06-02T07:28:46.205Z,105.50
2018-06-02T07:31:13.682Z,113.30
2018-06-02T07:33:41.161Z,107.47
2018-06-02T07:36:08.680Z,97.80
2018-06-02T07:38:36.438Z,96.10
2018-06-02T07:41:03.992Z,92.90
2018-06-02T07:43:31.516Z,97.50
2018-06-02T07:45:59.274Z,95.50
2018-06-02T07:48:26.753Z,89.50
2018-06-02T07:50:54.210Z,83.83
2018-06-02T07:53:21.951Z,87.73
2018-06-02T07:55:49.413Z,92.60
2018-06-02T07:58:17.179Z,85.03
2018-06-02T08:00:44.854Z,85.00
2018-06-02T08:03:12.370Z,86.03
2018-06-02T08:05:40.013Z,83.30
2018-06-02T08:08:07.541Z,97.90
2018-06-02T08:10:35.083Z,92.20
2018-06-02T08:13:02.592Z,90.10
2018-06-02T08:15:30.307Z,99.50
2018-06-02T08:17:57.769Z,95.70
2018-06-02T08:20:25.533Z,92.10
2018-06-02T08:22:52.996Z,106.63
2018-06-02T08:25:20.754Z,100.30
2018-06-02T08:27:48.233Z,94.07
2018-06-02T08:30:15.722Z,97.13
2018-06-02T08:32:43.380Z,96.07
2018-06-02T08:35:10.850Z,100.03
2018-06-02T08:37:38.313Z,107.37
2018-06-02T08:40:05.811Z,110.30
2018-06-02T08:42:33.295Z,104.20
2018-06-02T08:45:01.534Z,96.23
2018-06-02T08:47:28.996Z,96.77
2018-06-02T08:49:56.465Z,97.33
2018-06-02T08:52:23.937Z,96.77
2018-06-02T08:54:51.396Z,76.97
2018-06-02T08:57:18.932Z,80.80
2018-06-02T08:59:46.699Z,72.63
2018-06-02T09:02:14.462Z,67.97
2018-06-02T09:04:43.458Z,52.67
2018-06-02T09:07:10.929Z,59.90
2018-06-02T09:09:38.678Z,49.57
2018-06-02T09:12:06.147Z,48.03
2018-06-02T09:14:33.906Z,53.70
2018-06-02T09:17:01.670Z,47.90
2018-06-02T09:19:30.642Z,48.70
2018-06-02T09:21:58.283Z,47.03
2018-06-02T09:24:25.743Z,40.47
2018-06-02T09:26:53.223Z,42.73
2018-06-02T09:29:20.687Z,33.07
2018-06-02T09:31:48.263Z,35.27
2018-06-02T09:34:15.734Z,30.70
2018-06-02T09:36:43.354Z,27.03
2018-06-02T09:39:10.823Z,25.97
2018-06-02T09:41:38.402Z,26.77
2018-06-02T09:44:05.870Z,25.53
2018-06-02T09:46:33.333Z,24.00
2018-06-02T09:49:01.079Z,27.90
2018-06-02T09:51:29.311Z,24.00
2018-06-02T09:53:56.838Z,21.23
2018-06-02T09:56:24.378Z,23.33
2018-06-02T09:58:53.527Z,27.17
2018-06-02T10:01:20.986Z,34.93
2018-06-02T10:03:48.464Z,27.73
2018-06-02T10:06:15.974Z,30.23
2018-06-02T10:08:43.442Z,25.87
2018-06-02T10:11:10.971Z,26.30
2018-06-02T10:13:38.658Z,23.37
2018-06-02T10:16:06.191Z,21.83
2018-06-02T10:18:33.761Z,25.80
2018-06-02T10:21:01.416Z,27.87
2018-06-02T10:23:29.079Z,22.13
2018-06-02T10:25:56.557Z,20.07
2018-06-02T10:28:24.048Z,19.03
2018-06-02T10:30:51.562Z,19.80
2018-06-02T10:33:19.026Z,15.83
2018-06-02T10:35:46.698Z,23.27
2018-06-02T10:38:14.240Z,27.57
2018-06-02T10:40:42.158Z,26.40
2018-06-02T10:43:09.767Z,22.07
2018-06-02T10:45:37.535Z,22.30
2018-06-02T10:48:05.297Z,20.47
2018-06-02T10:50:32.760Z,20.07
2018-06-02T10:53:00.526Z,20.63
2018-06-02T10:55:28.004Z,24.00
2018-06-02T10:57:56.515Z,63.00
2018-06-02T11:00:24.133Z,20.47
2018-06-02T11:02:51.611Z,16.07
2018-06-02T11:05:19.104Z,20.70
2018-06-02T11:07:46.850Z,15.50
2018-06-02T11:10:15.179Z,27.67
2018-06-02T11:12:44.164Z,21.47
2018-06-02T11:15:11.626Z,22.43
2018-06-02T11:17:39.398Z,17.70
2018-06-02T11:20:07.325Z,22.20
2018-06-02T11:22:34.850Z,26.33
2018-06-02T11:25:02.336Z,23.87
2018-06-02T11:27:29.795Z,23.97
2018-06-02T11:29:57.316Z,41.27
2018-06-02T11:32:25.070Z,20.03
2018-06-02T11:34:52.843Z,16.50
2018-06-02T11:37:20.616Z,21.70
2018-06-02T11:39:48.375Z,16.93
2018-06-02T11:42:15.846Z,14.67
2018-06-02T11:44:43.595Z,21.50
2018-06-02T11:47:11.362Z,24.00
2018-06-02T11:49:38.822Z,18.50
2018-06-02T11:52:06.296Z,14.90
2018-06-02T11:54:33.966Z,20.70
2018-06-02T11:57:01.501Z,17.00
2018-06-02T11:59:29.260Z,15.47
2018-06-02T12:01:56.738Z,16.60
2018-06-02T12:04:24.443Z,16.07
2018-06-02T12:06:51.944Z,13.90
2018-06-02T12:09:19.418Z,12.40
2018-06-02T12:11:46.877Z,21.83
2018-06-02T12:14:15.110Z,14.30
2018-06-02T12:16:42.619Z,11.97
2018-06-02T12:19:10.079Z,13.40
2018-06-02T12:21:38.315Z,23.60
2018-06-02T12:24:05.793Z,14.13
2018-06-02T12:26:33.370Z,15.50
2018-06-02T12:29:00.830Z,20.77
2018-06-02T12:31:28.373Z,19.13
2018-06-02T12:33:55.834Z,12.80
2018-06-02T12:36:23.642Z,15.30
2018-06-02T12:38:51.354Z,18.90
2018-06-02T12:41:18.833Z,21.07
2018-06-02T12:43:46.490Z,22.83
2018-06-02T12:46:13.956Z,19.70
2018-06-02T12:48:41.427Z,13.60
2018-06-02T12:51:08.964Z,13.00
2018-06-02T12:53:36.721Z,18.10
2018-06-02T12:56:04.182Z,19.53
2018-06-02T12:58:31.650Z,9.57
2018-06-02T13:00:59.463Z,10.37
2018-06-02T13:03:26.918Z,13.43
2018-06-02T13:05:54.621Z,11.70
2018-06-02T13:08:22.086Z,12.20
2018-06-02T13:10:49.846Z,13.13
2018-06-02T13:13:17.615Z,12.77
2018-06-02T13:15:45.295Z,13.50
2018-06-02T13:18:12.843Z,12.50
2018-06-02T13:20:40.526Z,10.57
2018-06-02T13:23:07.990Z,8.77
2018-06-02T13:25:35.672Z,39.90
2018-06-02T13:28:03.129Z,22.47
2018-06-02T13:30:30.663Z,20.70
2018-06-02T13:32:58.118Z,11.37
2018-06-02T13:35:25.582Z,11.90
2018-06-02T13:37:53.122Z,13.93
2018-06-02T13:40:20.645Z,16.10
2018-06-02T13:42:48.122Z,14.67
2018-06-02T13:45:15.593Z,14.53
2018-06-02T13:47:43.256Z,15.57
2018-06-02T13:50:10.934Z,16.20
2018-06-02T13:52:38.414Z,13.20
2018-06-02T13:55:05.880Z,16.90
2018-06-02T13:57:33.429Z,17.13
2018-06-02T14:00:01.008Z,14.00
2018-06-02T14:02:28.466Z,18.37
2018-06-02T14:04:56.006Z,19.27
2018-06-02T14:07:23.546Z,22.93
2018-06-02T14:09:51.310Z,24.30
2018-06-02T14:12:19.087Z,21.63
2018-06-02T14:14:46.677Z,14.50
2018-06-02T14:17:14.305Z,15.53
2018-06-02T14:19:41.841Z,12.67
2018-06-02T14:22:09.352Z,18.13
2018-06-02T14:24:36.811Z,10.87
2018-06-02T14:27:04.289Z,19.53
2018-06-02T14:29:31.772Z,9.70
2018-06-02T14:31:59.250Z,8.50
2018-06-02T14:34:26.731Z,7.33
2018-06-02T14:36:54.263Z,6.63
2018-06-02T14:39:21.826Z,6.50
2018-06-02T14:41:49.288Z,7.60
2018-06-02T14:44:16.773Z,7.53
2018-06-02T14:46:44.248Z,9.70
2018-06-02T14:49:11.773Z,8.50
2018-06-02T14:51:39.311Z,12.07
2018-06-02T14:54:06.827Z,12.67
2018-06-02T14:56:34.629Z,13.83
2018-06-02T14:59:02.132Z,14.97
2018-06-02T15:01:30.374Z,13.60
2018-06-02T15:03:57.982Z,12.40
2018-06-02T15:06:25.518Z,11.40
2018-06-02T15:08:53.082Z,12.33
2018-06-02T15:11:20.677Z,9.33
2018-06-02T15:13:48.290Z,9.30
2018-06-02T15:16:15.769Z,10.30
2018-06-02T15:18:44.147Z,11.27
2018-06-02T15:21:11.598Z,8.10
2018-06-02T15:23:39.347Z,8.93
2018-06-02T15:26:06.955Z,7.73
2018-06-02T15:28:34.415Z,7.97
2018-06-02T15:31:01.890Z,10.30
2018-06-02T15:33:29.481Z,8.23
2018-06-02T15:35:57.059Z,8.27
2018-06-02T15:38:25.321Z,9.50
2018-06-02T15:40:52.791Z,10.03
2018-06-02T15:43:20.541Z,6.67
2018-06-02T15:45:48.011Z,8.47
2018-06-02T15:48:15.630Z,6.80
2018-06-02T15:50:43.822Z,6.50
2018-06-02T15:53:11.297Z,6.67
2018-06-02T15:55:38.762Z,6.73
2018-06-02T15:58:06.270Z,8.27
2018-06-02T16:00:33.722Z,7.77
2018-06-02T16:03:01.183Z,8.33
2018-06-02T16:05:28.657Z,7.93
2018-06-02T16:07:56.118Z,7.47
2018-06-02T16:10:23.818Z,12.23
2018-06-02T16:12:51.328Z,9.80
2018-06-02T16:15:18.754Z,8.33
2018-06-02T16:17:46.516Z,9.00
2018-06-02T16:20:13.987Z,6.97
2018-06-02T16:22:41.455Z,7.00
2018-06-02T16:25:09.176Z,7.60
2018-06-02T16:27:36.942Z,10.80
2018-06-02T16:30:04.710Z,6.97
2018-06-02T16:32:32.167Z,8.70
2018-06-02T16:34:59.626Z,7.23
2018-06-02T16:37:27.088Z,15.70
2018-06-02T16:39:54.851Z,16.53
2018-06-02T16:42:22.611Z,8.53
2018-06-02T16:44:50.078Z,8.87
2018-06-02T16:47:17.571Z,6.30
2018-06-02T16:49:45.209Z,8.30
2018-06-02T16:52:12.714Z,7.77
2018-06-02T16:54:40.187Z,9.50
2018-06-02T16:57:07.662Z,7.47
2018-06-02T16:59:35.126Z,9.40
2018-06-02T17:02:02.885Z,7.50
2018-06-02T17:04:30.367Z,20.73
2018-06-02T17:06:58.038Z,10.13
2018-06-02T17:09:25.502Z,7.07
2018-06-02T17:11:52.973Z,10.30
2018-06-02T17:14:20.431Z,10.37
2018-06-02T17:16:47.909Z,7.70
2018-06-02T17:19:15.405Z,8.33
2018-06-02T17:21:42.915Z,7.40
2018-06-02T17:24:10.632Z,7.07
2018-06-02T17:26:38.118Z,12.33
2018-06-02T17:29:05.581Z,6.20
2018-06-02T17:31:33.070Z,10.47
2018-06-02T17:34:00.594Z,10.23
2018-06-02T17:36:28.064Z,8.73
2018-06-02T17:38:55.573Z,11.70
2018-06-02T17:41:23.087Z,7.23
2018-06-02T17:43:50.560Z,7.73
2018-06-02T17:46:18.064Z,11.13
2018-06-02T17:48:46.464Z,7.43
2018-06-02T17:51:14.212Z,10.50
2018-06-02T17:53:41.702Z,11.30
2018-06-02T17:56:09.173Z,8.90
2018-06-02T17:58:36.675Z,10.33
2018-06-02T18:01:04.155Z,9.07
2018-06-02T18:03:32.410Z,11.43
2018-06-02T18:05:59.892Z,9.50
2018-06-02T18:08:27.348Z,8.90
2018-06-02T18:10:54.980Z,11.10
2018-06-02T18:13:22.462Z,10.93
2018-06-02T18:15:50.044Z,8.57
2018-06-02T18:18:17.843Z,9.60
2018-06-02T18:20:45.340Z,12.70
2018-06-02T18:23:12.851Z,9.17
2018-06-02T18:25:40.331Z,13.83
2018-06-02T18:28:07.831Z,13.10
2018-06-02T18:30:35.323Z,11.33
2018-06-02T18:33:02.828Z,9.47
2018-06-02T18:35:30.324Z,10.80
2018-06-02T18:37:57.952Z,11.63
2018-06-02T18:40:25.460Z,8.80
2018-06-02T18:42:52.943Z,7.93
2018-06-02T18:45:20.500Z,11.23
2018-06-02T18:47:48.143Z,9.80
2018-06-02T18:50:15.651Z,12.90
2018-06-02T18:52:43.174Z,9.47
2018-06-02T18:55:10.667Z,11.67
2018-06-02T18:57:38.190Z,10.80
2018-06-02T19:00:05.690Z,12.90
2018-06-02T19:02:33.172Z,10.77
2018-06-02T19:05:00.682Z,11.37
2018-06-02T19:07:28.320Z,11.00
2018-06-02T19:09:56.562Z,16.13
2018-06-02T19:12:24.041Z,16.73
2018-06-02T19:14:51.556Z,20.03
2018-06-02T19:17:19.056Z,12.30
2018-06-02T19:19:47.331Z,13.13
2018-06-02T19:22:14.868Z,13.73
2018-06-02T19:24:42.510Z,10.50
2018-06-02T19:27:10.027Z,15.33
2018-06-02T19:29:37.560Z,12.63
2018-06-02T19:32:05.941Z,14.90
2018-06-02T19:34:34.302Z,16.33
2018-06-02T19:37:01.859Z,16.30
2018-06-02T19:39:29.390Z,12.60
2018-06-02T19:41:56.923Z,12.50
2018-06-02T19:44:24.458Z,14.63
2018-06-02T19:46:52.743Z,15.90
2018-06-02T19:49:20.392Z,13.77
2018-06-02T19:51:48.680Z,12.63
2018-06-02T19:54:16.963Z,10.73
2018-06-02T19:56:44.594Z,11.87
2018-06-02T19:59:12.069Z,14.27
2018-06-02T20:01:39.655Z,13.30
2018-06-02T20:04:07.139Z,12.87
2018-06-02T20:06:34.594Z,15.00
2018-06-02T20:09:02.070Z,13.30
2018-06-02T20:11:29.533Z,17.03
2018-06-02T20:13:57.010Z,17.13
2018-06-02T20:16:24.479Z,16.77
2018-06-02T20:18:52.727Z,18.83
2018-06-02T20:21:20.208Z,14.30
2018-06-02T20:23:47.725Z,15.07
2018-06-02T20:26:15.464Z,18.70
2018-06-02T20:28:43.193Z,16.90
2018-06-02T20:31:10.698Z,21.80
2018-06-02T20:33:38.178Z,21.53
2018-06-02T20:36:05.681Z,25.20
2018-06-02T20:38:33.939Z,21.67
2018-06-02T20:41:02.957Z,19.80
2018-06-02T20:43:30.430Z,19.30
2018-06-02T20:45:57.950Z,28.43
2018-06-02T20:48:25.459Z,23.00
2018-06-02T20:50:53.096Z,28.13
2018-06-02T20:53:20.568Z,16.53
2018-06-02T20:55:48.059Z,16.77
2018-06-02T20:58:15.530Z,22.80
2018-06-02T21:00:43.038Z,19.57
2018-06-02T21:03:11.291Z,20.27
2018-06-02T21:05:40.293Z,21.63
2018-06-02T21:08:07.770Z,21.87
2018-06-02T21:10:35.328Z,19.43
2018-06-02T21:13:03.627Z,19.53
2018-06-02T21:15:31.091Z,17.30
2018-06-02T21:17:58.575Z,20.10
2018-06-02T21:20:26.060Z,18.00
2018-06-02T21:22:53.540Z,21.13
2018-06-02T21:25:21.071Z,24.50
2018-06-02T21:27:48.560Z,20.23
2018-06-02T21:30:16.191Z,20.33
2018-06-02T21:32:43.672Z,29.17
2018-06-02T21:35:11.918Z,23.33
2018-06-02T21:37:39.407Z,28.67
2018-06-02T21:40:07.005Z,22.07
2018-06-02T21:42:34.547Z,28.10
2018-06-02T21:45:02.022Z,25.13
2018-06-02T21:47:29.494Z,23.70
2018-06-02T21:49:56.963Z,26.60
2018-06-02T21:52:24.516Z,27.30
2018-06-02T21:54:51.958Z,27.17
2018-06-02T21:57:19.468Z,26.83
2018-06-02T21:59:46.941Z,30.60
2018-06-02T22:02:15.247Z,38.67
2018-06-02T22:04:42.844Z,33.63
2018-06-02T22:07:10.350Z,31.20
2018-06-02T22:09:37.964Z,30.93
2018-06-02T22:12:05.435Z,32.47
2018-06-02T22:14:32.931Z,35.00
2018-06-02T22:17:01.187Z,34.50
2018-06-02T22:19:28.675Z,46.83
2018-06-02T22:21:56.253Z,38.77
2018-06-02T22:24:23.753Z,34.30
2018-06-02T22:26:51.469Z,37.80
2018-06-02T22:29:19.098Z,35.57
2018-06-02T22:31:46.592Z,37.00
2018-06-02T22:34:14.074Z,34.93
2018-06-02T22:36:41.566Z,35.67
2018-06-02T22:39:09.027Z,38.83
2018-06-02T22:41:37.444Z,35.90
2018-06-02T22:44:04.984Z,34.57
2018-06-02T22:46:32.442Z,35.97
2018-06-02T22:48:59.915Z,35.67
2018-06-02T22:51:39.187Z,33.80
2018-06-02T22:54:06.666Z,34.57
2018-06-02T22:56:34.144Z,33.93
2018-06-02T22:59:02.378Z,35.40
2018-06-02T23:01:29.871Z,36.60
2018-06-02T23:03:57.358Z,34.70
2018-06-02T23:06:24.824Z,35.37
2018-06-02T23:08:52.348Z,38.10
2018-06-02T23:11:19.811Z,44.63
2018-06-02T23:13:48.090Z,41.43
2018-06-02T23:16:15.870Z,41.13
2018-06-02T23:18:43.609Z,43.30
2018-06-02T23:21:11.099Z,39.20
2018-06-02T23:23:38.580Z,42.40
2018-06-02T23:26:06.057Z,41.67
2018-06-02T23:28:33.743Z,42.53
2018-06-02T23:31:01.233Z,42.67
2018-06-02T23:33:28.720Z,40.37
2018-06-02T23:35:56.215Z,48.93
2018-06-02T23:38:23.751Z,43.77
2018-06-02T23:40:51.260Z,40.80
2018-06-02T23:43:19.532Z,45.80
2018-06-02T23:45:47.806Z,42.97
2018-06-02T23:48:15.331Z,36.00
2018-06-02T23:50:42.852Z,45.23
2018-06-02T23:53:10.423Z,38.60
2018-06-02T23:55:37.951Z,41.17
2018-06-02T23:58:05.502Z,47.57
